createdAt,value
2023-04-01T00:01:27.012Z,97061.52
2023-04-01T00:07:16.247Z,97064.27
2023-04-01T00:13:50.020Z,97061.47
2023-04-01T00:20:53.712Z,97055.42
2023-04-01T00:27:26.142Z,97044.31
2023-04-01T00:33:35.248Z,97041.98
2023-04-01T00:39:56.460Z,97047.71
2023-04-01T00:46:34.265Z,97053.66
2023-04-01T00:52:53.661Z,97053.94
2023-04-01T00:59:24.688Z,97056.18
2023-04-01T01:06:12.308Z,97052.43
2023-04-01T01:12:37.889Z,97053.17
2023-04-01T01:19:37.391Z,97041.67
2023-04-01T01:26:32.738Z,97041.02
2023-04-01T01:32:53.720Z,97036.06
2023-04-01T01:39:44.788Z,97035.78
2023-04-01T01:45:08.621Z,97041.06
2023-04-01T01:50:39.389Z,97040.50
2023-04-01T01:57:01.279Z,97034.75
2023-04-01T02:03:37.810Z,97037.38
2023-04-01T02:10:01.618Z,97040.89
2023-04-01T02:16:53.704Z,97048.38
2023-04-01T02:23:11.768Z,97049.81
2023-04-01T02:29:58.952Z,97049.91
2023-04-01T02:36:43.999Z,97056.87
2023-04-01T02:43:18.386Z,97049.41
2023-04-01T02:50:08.915Z,97053.53
2023-04-01T02:56:56.733Z,97058.73
2023-04-01T03:03:46.462Z,97067.18
2023-04-01T03:10:32.130Z,97065.99
2023-04-01T03:16:41.306Z,97062.73
2023-04-01T03:22:31.989Z,97068.76
2023-04-01T03:28:58.417Z,97065.73
2023-04-01T03:35:06.939Z,97069.14
2023-04-01T03:41:31.840Z,97066.63
2023-04-01T03:48:03.063Z,97074.02
2023-04-01T03:54:07.239Z,97075.08
2023-04-01T04:00:16.819Z,97076.05
2023-04-01T04:06:26.399Z,97080.66
2023-04-01T04:13:12.600Z,97080.49
2023-04-01T04:19:03.190Z,97074.30
2023-04-01T04:25:28.777Z,97065.55
2023-04-01T04:31:24.933Z,97070.11
2023-04-01T04:36:55.104Z,97067.50
2023-04-01T04:42:10.097Z,97065.32
2023-04-01T04:47:31.845Z,97069.56
2023-04-01T04:52:47.047Z,97068.91
2023-04-01T04:58:02.507Z,97076.02
2023-04-01T05:03:08.893Z,97070.66
2023-04-01T05:08:37.079Z,97075.38
2023-04-01T05:13:46.125Z,97073.65
2023-04-01T05:19:00.309Z,97079.58
2023-04-01T05:24:44.118Z,97081.16
2023-04-01T05:30:02.675Z,97084.66
2023-04-01T05:36:49.520Z,97083.46
2023-04-01T05:42:39.403Z,97084.59
2023-04-01T05:48:53.520Z,97081.78
2023-04-01T05:54:38.964Z,97085.34
2023-04-01T06:00:24.072Z,97087.83
2023-04-01T06:05:50.468Z,97088.38
2023-04-01T06:12:09.414Z,97092.04
2023-04-01T06:18:44.252Z,97099.95
2023-04-01T06:25:03.327Z,97101.45
2023-04-01T06:31:58.476Z,97103.26
2023-04-01T06:38:17.374Z,97110.19
2023-04-01T06:45:18.354Z,97111.77
2023-04-01T06:52:36.359Z,97118.70
2023-04-01T06:59:03.076Z,97121.65
2023-04-01T07:04:46.075Z,97128.58
2023-04-01T07:10:11.436Z,97132.78
2023-04-01T07:16:40.860Z,97134.35
2023-04-01T07:22:39.982Z,97138.93
2023-04-01T07:29:15.555Z,97146.44
2023-04-01T07:35:55.066Z,97149.09
2023-04-01T07:41:36.441Z,97152.75
2023-04-01T07:47:31.790Z,97157.69
2023-04-01T07:52:53.424Z,97158.98
2023-04-01T07:58:21.928Z,97155.30
2023-04-01T08:04:45.995Z,97153.23
2023-04-01T08:10:24.548Z,97160.48
2023-04-01T08:16:36.661Z,97163.26
2023-04-01T08:21:46.887Z,97166.57
2023-04-01T08:26:53.106Z,97167.43
2023-04-01T08:32:10.083Z,97167.61
2023-04-01T08:37:53.885Z,97166.36
2023-04-01T08:43:35.387Z,97169.77
2023-04-01T08:48:51.614Z,97163.97
2023-04-01T08:54:18.131Z,97163.73
2023-04-01T09:00:11.220Z,97169.20
2023-04-01T09:06:06.307Z,97170.59
2023-04-01T09:11:59.776Z,97173.36
2023-04-01T09:17:47.470Z,97175.11
2023-04-01T09:23:29.260Z,97169.48
2023-04-01T11:51:00.469Z,97182.30
2023-04-01T11:56:32.733Z,97184.14
2023-04-01T12:01:44.415Z,97181.36
2023-04-01T12:07:00.455Z,97187.77
2023-04-01T12:12:25.261Z,97187.39
2023-04-01T12:18:09.232Z,97191.16
2023-04-01T12:23:11.324Z,97188.65
2023-04-01T12:28:42.944Z,97195.17
2023-04-01T12:34:03.152Z,97193.57
2023-04-01T12:39:20.211Z,97192.64
2023-04-01T12:45:04.305Z,97199.96
2023-04-01T12:50:18.357Z,97193.34
2023-04-01T12:55:44.018Z,97193.73
2023-04-01T13:01:02.966Z,97193.15
2023-04-01T13:06:45.787Z,97198.17
2023-04-01T13:13:11.198Z,97201.77
2023-04-01T13:18:33.545Z,97205.64
2023-04-01T13:24:10.438Z,97204.36
2023-04-01T13:29:47.099Z,97200.88
2023-04-01T13:35:01.459Z,97203.73
2023-04-01T13:41:02.191Z,97205.84
2023-04-01T13:46:51.691Z,97221.48
2023-04-01T13:52:25.488Z,97223.86
2023-04-01T13:57:40.533Z,97230.30
2023-04-01T14:02:55.859Z,97232.08
2023-04-01T14:08:20.928Z,97244.77
2023-04-01T14:13:42.289Z,97259.36
2023-04-01T14:19:22.201Z,97263.82
2023-04-01T14:24:54.107Z,97262.63
2023-04-01T14:30:13.344Z,97253.73
2023-04-01T14:35:54.226Z,97252.48
2023-04-01T14:41:43.144Z,97262.41
2023-04-01T14:47:30.722Z,97266.23
2023-04-01T14:52:44.489Z,97260.08
2023-04-01T14:58:13.693Z,97264.52
2023-04-01T15:04:10.470Z,97268.92
2023-04-01T15:09:39.926Z,97271.60
2023-04-01T15:15:26.501Z,97273.52
2023-04-01T15:20:57.998Z,97289.30
2023-04-01T15:26:21.571Z,97295.34
2023-04-01T15:31:39.715Z,97306.70
2023-04-01T15:37:06.276Z,97312.80
2023-04-01T15:42:30.564Z,97310.27
2023-04-01T15:47:44.258Z,97312.99
2023-04-01T15:53:37.642Z,97315.69
2023-04-01T15:59:06.467Z,97322.44
2023-04-01T16:04:37.424Z,97319.30
2023-04-01T16:09:58.088Z,97321.08
2023-04-01T16:15:25.601Z,97315.95
2023-04-01T16:21:09.059Z,97327.33
2023-04-01T16:26:24.442Z,97327.98
2023-04-01T16:31:58.571Z,97333.32
2023-04-01T16:37:38.632Z,97344.35
2023-04-01T16:43:10.164Z,97350.30
2023-04-01T16:48:46.537Z,97361.70
2023-04-01T16:54:32.067Z,97372.01
2023-04-01T16:59:42.177Z,97386.79
2023-04-01T17:05:14.524Z,97393.98
2023-04-01T17:11:00.203Z,97398.91
2023-04-01T17:16:29.389Z,97407.76
2023-04-01T17:22:04.905Z,97425.27
2023-04-01T17:27:35.028Z,97440.02
2023-04-01T17:33:06.567Z,97447.25
2023-04-01T17:38:46.096Z,97448.19
2023-04-01T17:44:04.552Z,97455.23
2023-04-01T17:49:27.934Z,97462.77
2023-04-01T17:55:19.321Z,97470.83
2023-04-01T18:00:42.315Z,97474.95
2023-04-01T18:06:11.517Z,97476.17
2023-04-01T18:11:40.189Z,97480.21
2023-04-01T18:17:33.851Z,97481.35
2023-04-01T18:22:56.313Z,97482.24
2023-04-01T18:28:35.504Z,97484.74
2023-04-01T18:34:21.649Z,97492.56
2023-04-01T18:39:38.300Z,97498.98
2023-04-01T18:45:08.082Z,97506.09
2023-04-01T18:50:45.116Z,97505.86
2023-04-01T18:55:57.381Z,97513.95
2023-04-01T19:01:13.901Z,97515.64
2023-04-01T19:06:31.855Z,97518.00
2023-04-01T19:12:01.318Z,97522.40
2023-04-01T19:17:48.189Z,97527.83
2023-04-01T19:23:08.852Z,97534.83
2023-04-01T19:28:32.939Z,97536.48
2023-04-01T19:34:25.906Z,97547.86
2023-04-01T19:39:49.951Z,97553.45
2023-04-01T19:45:34.245Z,97553.84
2023-04-01T19:51:21.224Z,97564.60
2023-04-01T19:56:44.721Z,97569.98
2023-04-01T20:02:29.134Z,97576.31
2023-04-01T20:07:47.250Z,97580.77
2023-04-01T20:13:07.858Z,97581.79
2023-04-01T20:18:49.840Z,97581.83
2023-04-01T20:24:02.942Z,97583.23
2023-04-01T20:30:01.073Z,97585.20
2023-04-01T20:35:48.612Z,97592.71
2023-04-01T20:41:28.580Z,97601.40
2023-04-01T20:46:57.258Z,97604.33
2023-04-01T20:52:42.053Z,97608.86
2023-04-01T20:58:18.820Z,97611.52
2023-04-01T21:03:32.489Z,97614.04
2023-04-01T21:09:01.773Z,97620.19
2023-04-01T21:14:37.062Z,97627.50
2023-04-01T21:20:07.630Z,97633.73
2023-04-01T21:25:57.986Z,97636.58
2023-04-01T21:31:47.614Z,97640.88
2023-04-01T21:37:04.466Z,97642.80
2023-04-01T21:42:54.928Z,97643.48
2023-04-01T21:48:25.419Z,97646.11
2023-04-01T21:54:23.237Z,97646.80
2023-04-01T22:00:12.278Z,97645.59
2023-04-01T22:05:18.737Z,97649.52
2023-04-01T22:10:40.201Z,97656.06
2023-04-01T22:16:13.104Z,97657.85
2023-04-01T22:21:50.322Z,97662.43
2023-04-01T22:27:20.553Z,97663.59
2023-04-01T22:33:01.568Z,97665.61
2023-04-01T22:38:36.913Z,97670.17
2023-04-01T22:43:50.473Z,97670.91
2023-04-01T22:49:02.821Z,97678.05
2023-04-01T22:54:45.171Z,97686.45
2023-04-01T22:59:58.311Z,97692.02
2023-04-01T23:05:05.138Z,97691.98
2023-04-01T23:10:22.333Z,97693.69
2023-04-01T23:15:47.740Z,97693.73
2023-04-01T23:21:11.626Z,97694.04
2023-04-01T23:26:27.093Z,97694.57
2023-04-01T23:31:36.772Z,97688.39
2023-04-01T23:36:40.883Z,97698.81
2023-04-01T23:42:04.265Z,97706.16
2023-04-01T23:47:29.507Z,97707.04
2023-04-01T23:52:42.791Z,97713.10
2023-04-01T23:58:28.084Z,97715.85
